createdAt,value
2022-10-10T00:01:15.069Z,5.20
2022-10-10T00:03:43.871Z,4.30
2022-10-10T00:06:14.374Z,4.53
2022-10-10T00:08:43.037Z,4.30
2022-10-10T00:11:11.623Z,4.70
2022-10-10T00:13:40.261Z,4.40
2022-10-10T00:16:08.660Z,4.53
2022-10-10T00:18:37.105Z,5.17
2022-10-10T00:21:05.495Z,4.43
2022-10-10T00:23:35.103Z,4.53
2022-10-10T00:26:08.308Z,4.93
2022-10-10T00:28:38.507Z,4.67
2022-10-10T00:31:07.464Z,5.30
2022-10-10T00:33:35.739Z,4.70
2022-10-10T00:36:04.281Z,5.00
2022-10-10T00:38:32.536Z,4.33
2022-10-10T00:41:02.088Z,4.90
2022-10-10T00:43:30.815Z,4.30
2022-10-10T00:45:58.952Z,4.60
2022-10-10T00:48:30.025Z,5.00
2022-10-10T00:51:02.785Z,4.67
2022-10-10T00:53:35.640Z,4.50
2022-10-10T00:56:06.204Z,4.80
2022-10-10T00:58:36.363Z,4.50
2022-10-10T01:01:04.986Z,5.13
2022-10-10T01:03:33.150Z,4.20
2022-10-10T01:06:01.598Z,4.73
2022-10-10T01:08:29.928Z,4.70
2022-10-10T01:11:12.433Z,4.50
2022-10-10T01:13:53.131Z,4.17
2022-10-10T01:16:28.634Z,5.13
2022-10-10T01:19:09.247Z,5.10
2022-10-10T01:21:43.319Z,4.50
2022-10-10T01:24:43.451Z,4.83
2022-10-10T01:27:31.628Z,4.70
2022-10-10T01:30:07.065Z,4.90
2022-10-10T01:32:43.994Z,4.50
2022-10-10T01:35:29.684Z,4.90
2022-10-10T01:38:06.476Z,4.73
2022-10-10T01:40:40.551Z,4.30
2022-10-10T01:43:10.020Z,4.83
2022-10-10T01:45:44.306Z,4.70
2022-10-10T01:48:12.559Z,4.73
2022-10-10T01:50:54.798Z,5.07
2022-10-10T01:53:29.350Z,3.93
2022-10-10T01:56:04.265Z,4.70
2022-10-10T01:59:02.024Z,4.77
2022-10-10T02:01:42.631Z,4.17
2022-10-10T02:04:19.642Z,4.60
2022-10-10T02:06:54.078Z,4.40
2022-10-10T02:09:29.447Z,4.40
2022-10-10T02:11:59.500Z,4.33
2022-10-10T02:14:33.104Z,4.47
2022-10-10T02:17:04.200Z,3.83
2022-10-10T02:19:32.679Z,4.10
2022-10-10T02:22:01.874Z,3.93
2022-10-10T02:24:30.123Z,4.20
2022-10-10T02:27:03.569Z,4.67
2022-10-10T02:29:35.181Z,3.97
2022-10-10T02:32:10.555Z,4.40
2022-10-10T02:34:41.201Z,4.07
2022-10-10T02:37:13.337Z,4.60
2022-10-10T02:39:44.708Z,4.27
2022-10-10T02:42:16.075Z,4.07
2022-10-10T02:44:45.459Z,4.30
2022-10-10T02:47:15.104Z,4.27
2022-10-10T02:49:43.381Z,4.13
2022-10-10T02:52:14.574Z,4.40
2022-10-10T02:54:42.878Z,3.83
2022-10-10T02:57:11.229Z,4.57
2022-10-10T02:59:39.251Z,4.80
2022-10-10T03:02:07.960Z,4.03
2022-10-10T03:04:37.535Z,4.40
2022-10-10T03:07:06.276Z,4.57
2022-10-10T03:09:34.825Z,4.30
2022-10-10T03:12:03.098Z,4.40
2022-10-10T03:14:31.191Z,4.80
2022-10-10T03:16:59.752Z,4.33
2022-10-10T03:19:28.128Z,4.60
2022-10-10T03:21:57.604Z,4.70
2022-10-10T03:24:26.085Z,4.93
2022-10-10T03:26:54.235Z,4.80
2022-10-10T03:29:22.311Z,4.43
2022-10-10T03:31:51.188Z,4.87
2022-10-10T03:34:19.538Z,4.60
2022-10-10T03:36:47.678Z,4.10
2022-10-10T03:39:17.152Z,4.47
2022-10-10T03:41:45.277Z,4.50
2022-10-10T03:44:13.354Z,4.80
2022-10-10T03:46:41.422Z,3.90
2022-10-10T03:49:09.498Z,8.33
2022-10-10T03:51:37.583Z,9.57
2022-10-10T03:54:05.850Z,6.50
2022-10-10T03:56:35.341Z,6.53
2022-10-10T03:59:03.906Z,9.40
2022-10-10T04:01:32.111Z,5.50
2022-10-10T04:04:00.629Z,5.13
2022-10-10T04:06:29.338Z,5.10
2022-10-10T04:08:57.418Z,4.77
2022-10-10T04:11:25.621Z,4.73
2022-10-10T04:13:55.018Z,4.27
2022-10-10T04:16:23.127Z,5.10
2022-10-10T04:18:51.420Z,4.50
2022-10-10T04:21:19.462Z,4.40
2022-10-10T04:23:47.520Z,4.40
2022-10-10T04:26:15.602Z,7.50
2022-10-10T04:28:43.761Z,7.13
2022-10-10T04:31:13.412Z,5.57
2022-10-10T04:33:41.527Z,5.27
2022-10-10T04:36:09.655Z,6.60
2022-10-10T04:38:37.869Z,5.00
2022-10-10T04:41:06.170Z,8.20
2022-10-10T04:43:34.249Z,8.23
2022-10-10T04:46:02.325Z,6.07
2022-10-10T04:48:31.877Z,5.13
2022-10-10T04:51:00.949Z,4.67
2022-10-10T04:53:29.661Z,5.50
2022-10-10T04:55:57.843Z,5.00
2022-10-10T04:58:25.985Z,5.47
2022-10-10T05:00:54.846Z,4.90
2022-10-10T05:03:23.156Z,5.10
2022-10-10T05:05:52.859Z,5.40
2022-10-10T05:08:21.632Z,4.80
2022-10-10T05:10:52.252Z,5.20
2022-10-10T05:13:20.300Z,5.20
2022-10-10T05:15:51.897Z,5.50
2022-10-10T05:18:20.541Z,4.93
2022-10-10T05:20:49.090Z,4.73
2022-10-10T05:23:18.842Z,4.87
2022-10-10T05:25:49.485Z,6.50
2022-10-10T05:28:17.812Z,5.90
2022-10-10T05:30:46.014Z,6.23
2022-10-10T05:33:14.142Z,6.50
2022-10-10T05:35:42.183Z,6.67
2022-10-10T05:38:10.388Z,6.90
2022-10-10T05:40:42.059Z,5.80
2022-10-10T05:43:10.196Z,5.97
2022-10-10T05:45:38.406Z,5.70
2022-10-10T05:48:06.534Z,5.60
2022-10-10T05:50:38.496Z,5.80
2022-10-10T05:53:07.546Z,5.20
2022-10-10T05:55:36.675Z,5.80
2022-10-10T05:58:06.327Z,7.20
2022-10-10T06:00:35.136Z,6.67
2022-10-10T06:03:03.244Z,5.23
2022-10-10T06:05:31.342Z,5.33
2022-10-10T06:08:07.795Z,5.20
2022-10-10T06:10:41.398Z,5.70
2022-10-10T06:13:11.274Z,5.20
2022-10-10T06:15:39.675Z,5.30
2022-10-10T06:18:08.410Z,5.07
2022-10-10T06:20:37.427Z,5.47
2022-10-10T06:23:06.750Z,5.60
2022-10-10T06:25:40.476Z,5.40
2022-10-10T06:28:12.136Z,4.80
2022-10-10T06:30:44.281Z,5.10
2022-10-10T06:33:13.469Z,5.20
2022-10-10T06:35:42.766Z,5.43
2022-10-10T06:38:10.963Z,7.00
2022-10-10T06:40:39.272Z,6.67
2022-10-10T06:43:11.418Z,6.27
2022-10-10T06:45:42.331Z,6.90
2022-10-10T06:48:11.026Z,6.20
2022-10-10T06:50:39.194Z,7.00
2022-10-10T06:53:07.869Z,6.93
2022-10-10T06:55:36.004Z,7.00
2022-10-10T06:58:04.412Z,6.27
2022-10-10T07:00:32.577Z,7.40
2022-10-10T07:03:06.404Z,7.00
2022-10-10T07:05:35.296Z,8.63
2022-10-10T07:08:03.378Z,8.93
2022-10-10T07:10:31.664Z,8.17
2022-10-10T07:12:59.803Z,7.13
2022-10-10T07:15:28.135Z,7.40
2022-10-10T07:18:00.007Z,7.97
2022-10-10T07:20:29.588Z,10.10
2022-10-10T07:22:57.894Z,10.60
2022-10-10T07:25:26.169Z,9.20
2022-10-10T07:27:54.400Z,11.90
2022-10-10T07:30:22.735Z,7.00
2022-10-10T07:32:51.628Z,7.67
2022-10-10T07:35:20.080Z,16.13
2022-10-10T07:37:50.147Z,8.50
2022-10-10T07:40:18.393Z,5.80
2022-10-10T07:42:46.696Z,7.17
2022-10-10T07:45:15.113Z,7.13
2022-10-10T07:47:43.278Z,6.00
2022-10-10T07:50:13.189Z,6.47
2022-10-10T07:52:41.621Z,5.50
2022-10-10T07:55:11.553Z,5.80
2022-10-10T07:57:39.730Z,5.33
2022-10-10T08:00:12.322Z,5.30
2022-10-10T08:02:40.944Z,5.10
2022-10-10T08:05:09.973Z,4.60
2022-10-10T08:07:38.049Z,6.87
2022-10-10T08:10:08.267Z,6.57
2022-10-10T08:12:37.751Z,4.90
2022-10-10T08:15:07.072Z,5.80
2022-10-10T08:17:35.300Z,4.67
2022-10-10T08:20:03.589Z,8.63
2022-10-10T08:22:31.760Z,6.03
2022-10-10T08:24:59.902Z,5.57
2022-10-10T08:27:28.251Z,5.10
2022-10-10T08:29:57.761Z,5.27
2022-10-10T08:32:25.914Z,5.40
2022-10-10T08:34:54.031Z,4.70
2022-10-10T08:37:25.775Z,5.83
2022-10-10T08:39:56.840Z,5.10
2022-10-10T08:42:31.960Z,5.20
2022-10-10T08:45:05.732Z,5.40
2022-10-10T08:47:40.259Z,5.00
2022-10-10T08:50:16.099Z,5.40
2022-10-10T08:52:50.125Z,4.40
2022-10-10T08:55:24.043Z,4.87
2022-10-10T08:57:56.170Z,4.60
2022-10-10T09:00:33.049Z,5.00
2022-10-10T09:03:01.567Z,5.40
2022-10-10T09:05:46.757Z,4.90
2022-10-10T09:08:33.098Z,5.53
2022-10-10T09:11:09.565Z,4.63
2022-10-10T09:13:41.501Z,4.73
2022-10-10T09:16:38.414Z,5.10
2022-10-10T09:19:24.098Z,4.93
2022-10-10T09:21:56.409Z,5.00
2022-10-10T09:24:27.698Z,4.80
2022-10-10T09:27:01.206Z,4.20
2022-10-10T09:29:34.040Z,5.23
2022-10-10T09:32:10.398Z,5.40
2022-10-10T09:34:43.377Z,5.07
2022-10-10T09:37:24.383Z,4.93
2022-10-10T09:40:03.715Z,5.40
2022-10-10T09:42:36.530Z,5.60
2022-10-10T09:45:14.229Z,5.20
2022-10-10T09:47:43.877Z,5.60
2022-10-10T09:50:14.864Z,5.50
2022-10-10T09:52:43.942Z,6.07
2022-10-10T09:55:24.301Z,5.00
2022-10-10T09:57:55.055Z,6.00
2022-10-10T10:00:30.040Z,5.43
2022-10-10T10:03:13.839Z,5.40
2022-10-10T10:05:45.366Z,5.60
2022-10-10T10:08:22.732Z,6.17
2022-10-10T10:10:51.060Z,5.83
2022-10-10T10:13:26.146Z,5.30
2022-10-10T10:16:02.008Z,5.60
2022-10-10T10:18:32.341Z,6.67
2022-10-10T10:21:17.096Z,6.37
2022-10-10T10:23:53.617Z,6.77
2022-10-10T10:26:24.794Z,6.63
2022-10-10T10:28:53.880Z,7.27
2022-10-10T10:31:35.526Z,6.73
2022-10-10T10:34:32.573Z,7.10
2022-10-10T10:37:15.022Z,6.60
2022-10-10T10:39:57.038Z,7.30
2022-10-10T10:42:40.588Z,6.40
2022-10-10T10:45:17.556Z,6.37
2022-10-10T10:47:56.695Z,7.53
2022-10-10T10:50:45.102Z,7.93
2022-10-10T10:53:22.439Z,6.10
2022-10-10T10:55:59.143Z,6.47
2022-10-10T11:02:03.422Z,6.47
2022-10-10T11:05:23.000Z,5.87
2022-10-10T11:08:04.858Z,6.53
2022-10-10T11:10:40.050Z,5.50
2022-10-10T11:13:15.244Z,5.40
2022-10-10T11:16:07.229Z,5.37
2022-10-10T11:18:42.477Z,5.63
2022-10-10T11:21:16.084Z,5.30
2022-10-10T11:23:51.229Z,5.90
2022-10-10T11:26:24.685Z,5.20
2022-10-10T11:28:59.041Z,4.93
2022-10-10T11:31:33.312Z,5.67
2022-10-10T11:34:07.173Z,5.23
2022-10-10T11:36:38.545Z,4.97
2022-10-10T11:39:17.645Z,4.63
2022-10-10T11:41:53.031Z,4.83
2022-10-10T11:44:26.518Z,5.97
2022-10-10T11:47:00.488Z,5.27
2022-10-10T11:49:35.932Z,5.53
2022-10-10T11:52:33.769Z,5.07
2022-10-10T11:55:11.498Z,5.70
2022-10-10T11:57:44.163Z,5.90
2022-10-10T12:00:15.892Z,5.47
2022-10-10T12:02:45.923Z,4.53
2022-10-10T12:05:23.813Z,4.50
2022-10-10T12:08:08.446Z,4.67
2022-10-10T12:10:43.254Z,4.70
2022-10-10T12:13:25.923Z,4.33
2022-10-10T12:15:56.610Z,4.20
2022-10-10T12:18:27.894Z,3.73
2022-10-10T12:21:07.660Z,4.90
2022-10-10T12:23:36.146Z,3.67
2022-10-10T12:26:05.720Z,4.40
2022-10-10T12:28:38.563Z,4.50
2022-10-10T12:31:30.128Z,3.67
2022-10-10T12:34:16.622Z,4.50
2022-10-10T12:36:57.390Z,4.20
2022-10-10T12:39:34.514Z,3.40
2022-10-10T12:42:04.315Z,4.20
2022-10-10T12:44:46.439Z,3.83
2022-10-10T12:48:04.081Z,3.50
2022-10-10T12:50:34.352Z,3.27
2022-10-10T12:53:04.433Z,3.57
2022-10-10T12:55:41.919Z,3.30
2022-10-10T12:58:26.534Z,3.87
2022-10-10T13:00:57.688Z,3.00
2022-10-10T13:03:29.541Z,3.30
2022-10-10T13:06:03.730Z,3.27
2022-10-10T13:08:32.304Z,3.03
2022-10-10T13:11:06.315Z,2.97
2022-10-10T13:13:36.374Z,3.20
2022-10-10T13:16:10.280Z,2.97
2022-10-10T13:18:39.912Z,3.10
2022-10-10T13:21:10.255Z,2.63
2022-10-10T13:23:43.167Z,3.27
2022-10-10T13:26:23.378Z,2.70
2022-10-10T13:28:54.392Z,3.10
2022-10-10T13:31:22.821Z,2.53
2022-10-10T13:33:51.155Z,3.17
2022-10-10T13:36:22.333Z,3.20
2022-10-10T13:38:51.640Z,3.27
2022-10-10T13:41:21.110Z,2.90
2022-10-10T13:43:49.574Z,2.93
2022-10-10T13:46:31.462Z,4.07
2022-10-10T13:49:00.855Z,3.43
2022-10-10T13:51:43.346Z,4.13
2022-10-10T13:54:45.599Z,3.50
2022-10-10T13:57:21.019Z,3.43
2022-10-10T13:59:59.050Z,3.80
2022-10-10T14:02:32.943Z,4.00
2022-10-10T14:05:05.618Z,3.30
2022-10-10T14:07:34.234Z,3.90
2022-10-10T14:10:06.078Z,3.33
2022-10-10T14:12:37.429Z,4.70
2022-10-10T14:15:27.225Z,3.50
2022-10-10T14:17:56.754Z,3.60
2022-10-10T14:20:25.398Z,3.20
2022-10-10T14:22:53.551Z,4.00
2022-10-10T14:25:21.731Z,4.03
2022-10-10T14:27:49.796Z,3.40
2022-10-10T14:30:17.948Z,3.43
2022-10-10T14:32:46.139Z,3.33
2022-10-10T14:35:15.751Z,3.53
2022-10-10T14:37:43.845Z,3.30
2022-10-10T14:40:20.109Z,3.37
2022-10-10T14:42:48.322Z,3.07
2022-10-10T14:45:18.350Z,3.97
2022-10-10T14:47:46.703Z,3.60
2022-10-10T14:50:18.931Z,3.63
2022-10-10T14:52:47.302Z,4.07
2022-10-10T14:55:15.960Z,4.10
2022-10-10T14:57:44.179Z,4.60
2022-10-10T15:00:16.198Z,4.90
2022-10-10T15:02:45.730Z,5.57
2022-10-10T15:05:14.877Z,5.60
2022-10-10T15:07:44.802Z,6.57
2022-10-10T15:13:03.151Z,6.83
2022-10-10T15:15:31.470Z,7.07
2022-10-10T15:17:59.917Z,7.43
2022-10-10T15:20:31.705Z,7.50
2022-10-10T15:23:02.951Z,7.87
2022-10-10T15:25:33.707Z,8.00
2022-10-10T15:28:02.732Z,8.37
2022-10-10T15:30:31.213Z,7.57
2022-10-10T15:32:59.521Z,8.13
2022-10-10T15:35:36.236Z,8.27
2022-10-10T15:38:17.855Z,8.37
2022-10-10T15:40:46.043Z,7.47
2022-10-10T15:43:15.952Z,9.20
2022-10-10T15:45:55.488Z,7.47
2022-10-10T15:48:24.480Z,8.33
2022-10-10T15:51:00.358Z,8.20
2022-10-10T15:53:32.088Z,9.30
2022-10-10T15:56:00.194Z,8.97
2022-10-10T15:58:28.370Z,8.20
2022-10-10T16:00:56.669Z,9.00
2022-10-10T16:03:24.821Z,8.87
2022-10-10T16:05:53.014Z,8.97
2022-10-10T16:08:21.074Z,9.90
2022-10-10T16:10:50.748Z,10.10
2022-10-10T16:13:18.879Z,10.60
2022-10-10T16:15:56.867Z,11.80
2022-10-10T16:18:24.952Z,11.43
2022-10-10T16:20:53.239Z,11.93
2022-10-10T16:23:21.415Z,13.17
2022-10-10T16:25:50.924Z,11.83
2022-10-10T16:28:19.016Z,13.27
2022-10-10T16:30:47.206Z,14.00
2022-10-10T16:33:15.279Z,9.40
2022-10-10T16:35:43.401Z,11.17
2022-10-10T16:38:11.501Z,7.63
2022-10-10T16:40:39.600Z,8.10
2022-10-10T16:43:09.171Z,9.00
2022-10-10T16:45:43.533Z,7.23
2022-10-10T16:48:11.760Z,4.37
2022-10-10T16:50:40.830Z,5.00
2022-10-10T16:53:09.462Z,4.00
2022-10-10T16:55:40.166Z,3.57
2022-10-10T16:58:10.172Z,4.10
2022-10-10T17:00:38.495Z,3.70
2022-10-10T17:03:06.693Z,3.67
2022-10-10T17:05:35.055Z,3.60
2022-10-10T17:08:03.081Z,4.10
2022-10-10T17:10:31.179Z,4.47
2022-10-10T17:12:59.223Z,3.40
2022-10-10T17:15:28.703Z,3.20
2022-10-10T17:17:56.858Z,3.00
2022-10-10T17:20:24.953Z,3.33
2022-10-10T17:22:53.034Z,3.53
2022-10-10T17:25:21.092Z,3.27
2022-10-10T17:27:49.170Z,3.53
2022-10-10T17:30:17.403Z,4.03
2022-10-10T17:32:46.911Z,3.40
2022-10-10T17:35:15.018Z,3.80
2022-10-10T17:37:43.077Z,3.77
2022-10-10T17:40:11.650Z,4.10
2022-10-10T17:42:39.734Z,2.97
2022-10-10T17:45:08.994Z,3.63
2022-10-10T17:47:37.073Z,3.50
2022-10-10T17:50:07.461Z,3.50
2022-10-10T17:52:35.849Z,2.63
2022-10-10T17:55:03.936Z,2.90
2022-10-10T17:57:33.338Z,3.20
2022-10-10T18:00:01.496Z,3.10
2022-10-10T18:02:29.653Z,3.07
2022-10-10T18:04:58.022Z,3.30
2022-10-10T18:07:27.580Z,3.73
2022-10-10T18:09:55.729Z,4.03
2022-10-10T18:12:23.946Z,3.60
2022-10-10T18:14:52.178Z,3.93
2022-10-10T18:17:20.269Z,3.60
2022-10-10T18:19:48.502Z,3.13
2022-10-10T18:22:16.701Z,3.53
2022-10-10T18:24:46.265Z,3.37
2022-10-10T18:27:14.367Z,3.40
2022-10-10T18:29:42.478Z,3.70
2022-10-10T18:32:10.620Z,4.00
2022-10-10T18:34:38.755Z,3.80
2022-10-10T18:37:07.138Z,3.90
2022-10-10T18:39:35.975Z,3.17
2022-10-10T18:42:06.182Z,3.13
2022-10-10T18:44:34.365Z,3.50
2022-10-10T18:47:02.414Z,4.20
2022-10-10T18:49:30.461Z,4.30
2022-10-10T18:51:58.513Z,4.60
2022-10-10T18:54:27.468Z,4.43
2022-10-10T18:56:55.540Z,3.67
2022-10-10T18:59:25.006Z,5.00
2022-10-10T19:01:53.256Z,6.50
2022-10-10T19:04:22.439Z,6.23
2022-10-10T19:06:56.228Z,4.90
2022-10-10T19:09:26.773Z,4.40
2022-10-10T19:11:55.144Z,4.93
2022-10-10T19:14:24.555Z,5.30
2022-10-10T19:16:52.698Z,4.90
2022-10-10T19:19:21.053Z,5.60
2022-10-10T19:21:49.974Z,4.73
2022-10-10T19:24:21.135Z,4.47
2022-10-10T19:26:55.795Z,5.17
2022-10-10T19:29:27.066Z,4.43
2022-10-10T19:31:55.939Z,4.50
2022-10-10T19:34:24.424Z,5.83
2022-10-10T19:36:53.560Z,5.50
2022-10-10T19:39:21.881Z,4.67
2022-10-10T19:41:50.396Z,5.20
2022-10-10T19:44:18.684Z,4.57
2022-10-10T19:46:48.345Z,5.27
2022-10-10T19:49:16.528Z,7.07
2022-10-10T19:51:44.622Z,8.83
2022-10-10T19:54:12.756Z,5.57
2022-10-10T19:56:40.991Z,6.50
2022-10-10T19:59:09.161Z,7.00
2022-10-10T20:01:37.548Z,5.67
2022-10-10T20:04:07.275Z,4.63
2022-10-10T20:06:35.429Z,4.20
2022-10-10T20:09:07.100Z,5.87
2022-10-10T20:11:38.129Z,4.50
2022-10-10T20:14:06.237Z,4.87
2022-10-10T20:16:34.555Z,4.53
2022-10-10T20:19:02.692Z,4.77
2022-10-10T20:21:33.970Z,4.40
2022-10-10T20:24:03.916Z,4.87
2022-10-10T20:26:31.979Z,4.47
2022-10-10T20:29:00.802Z,4.40
2022-10-10T20:31:31.521Z,4.40
2022-10-10T20:34:01.748Z,4.57
2022-10-10T20:36:32.830Z,4.53
2022-10-10T20:39:03.002Z,4.80
2022-10-10T20:41:33.086Z,4.93
2022-10-10T20:44:03.259Z,4.60
2022-10-10T20:46:34.764Z,5.07
2022-10-10T20:49:06.633Z,4.90
2022-10-10T20:51:36.120Z,4.70
2022-10-10T20:54:06.705Z,4.80
2022-10-10T20:56:36.428Z,4.57
2022-10-10T20:59:05.214Z,4.63
2022-10-10T21:01:33.328Z,4.53
2022-10-10T21:04:01.868Z,4.80
2022-10-10T21:06:32.208Z,4.23
2022-10-10T21:09:04.874Z,5.33
2022-10-10T21:11:33.187Z,4.20
2022-10-10T21:14:02.552Z,4.80
2022-10-10T21:16:32.595Z,4.43
2022-10-10T21:19:00.737Z,4.50
2022-10-10T21:21:32.635Z,4.70
2022-10-10T21:24:03.747Z,4.47
2022-10-10T21:26:32.523Z,4.70
2022-10-10T21:29:01.678Z,5.43
2022-10-10T21:31:33.239Z,4.13
2022-10-10T21:34:02.452Z,4.27
2022-10-10T21:36:31.514Z,4.23
2022-10-10T21:39:02.510Z,6.00
2022-10-10T21:41:30.624Z,4.20
2022-10-10T21:44:00.336Z,3.70
2022-10-10T21:46:35.582Z,4.73
2022-10-10T21:49:07.199Z,4.73
2022-10-10T21:51:37.927Z,4.80
2022-10-10T21:54:07.763Z,4.40
2022-10-10T21:56:36.196Z,5.47
2022-10-10T21:59:04.644Z,4.10
2022-10-10T22:01:33.567Z,4.10
2022-10-10T22:04:03.255Z,3.90
2022-10-10T22:06:31.770Z,5.10
2022-10-10T22:09:01.376Z,4.13
2022-10-10T22:11:34.246Z,4.43
2022-10-10T22:14:03.426Z,3.60
2022-10-10T22:16:31.745Z,3.30
2022-10-10T22:19:00.292Z,4.70
2022-10-10T22:21:31.839Z,3.93
2022-10-10T22:24:02.115Z,4.07
2022-10-10T22:26:31.843Z,3.83
2022-10-10T22:29:00.035Z,3.70
2022-10-10T22:31:29.230Z,4.10
2022-10-10T22:33:57.681Z,3.67
2022-10-10T22:36:27.166Z,4.13
2022-10-10T22:38:56.552Z,4.30
2022-10-10T22:41:24.624Z,4.97
2022-10-10T22:43:54.231Z,4.23
2022-10-10T22:46:22.470Z,4.20
2022-10-10T22:48:50.739Z,4.33
2022-10-10T22:51:19.955Z,4.03
2022-10-10T22:53:48.901Z,3.93
2022-10-10T22:56:20.202Z,4.73
2022-10-10T22:58:48.860Z,4.40
2022-10-10T23:01:21.196Z,4.10
2022-10-10T23:03:49.468Z,4.40
2022-10-10T23:06:17.592Z,3.27
2022-10-10T23:08:45.723Z,3.60
2022-10-10T23:11:13.753Z,3.80
2022-10-10T23:13:42.108Z,4.13
2022-10-10T23:16:10.913Z,3.30
2022-10-10T23:18:40.386Z,4.00
2022-10-10T23:21:08.577Z,4.03
2022-10-10T23:23:36.598Z,4.30
2022-10-10T23:26:07.458Z,3.87
2022-10-10T23:28:36.572Z,4.87
2022-10-10T23:31:07.323Z,3.83
2022-10-10T23:33:37.173Z,4.10
2022-10-10T23:36:09.107Z,3.60
2022-10-10T23:38:37.877Z,3.73
2022-10-10T23:41:06.767Z,4.13
2022-10-10T23:43:35.261Z,3.97
2022-10-10T23:46:03.895Z,3.80
2022-10-10T23:48:32.362Z,4.23
2022-10-10T23:51:00.498Z,4.10
2022-10-10T23:53:30.386Z,4.83
2022-10-10T23:55:58.432Z,3.63
2022-10-10T23:58:26.689Z,3.70
